createdAt,value
2018-10-18T00:00:43.524Z,99777.00
2018-10-18T00:03:11.701Z,99788.00
2018-10-18T00:05:39.894Z,99786.00
2018-10-18T00:08:08.101Z,99789.00
2018-10-18T00:10:36.223Z,99784.00
2018-10-18T00:13:04.433Z,99777.00
2018-10-18T00:15:32.587Z,99783.00
2018-10-18T00:18:00.764Z,99786.00
2018-10-18T00:20:28.891Z,99785.00
2018-10-18T00:22:57.095Z,99785.00
2018-10-18T00:25:25.240Z,99780.00
2018-10-18T00:27:53.455Z,99782.00
2018-10-18T00:30:21.817Z,99780.00
2018-10-18T00:32:49.923Z,99782.00
2018-10-18T00:35:18.019Z,99782.00
2018-10-18T00:37:46.187Z,99777.00
2018-10-18T00:40:14.322Z,99772.00
2018-10-18T00:42:42.562Z,99770.00
2018-10-18T00:45:10.773Z,99770.00
2018-10-18T00:47:38.917Z,99765.00
2018-10-18T00:50:09.901Z,99763.00
2018-10-18T00:52:38.018Z,99760.00
2018-10-18T00:55:08.873Z,99751.00
2018-10-18T00:57:37.047Z,99755.00
2018-10-18T01:00:06.585Z,99754.00
2018-10-18T01:02:34.726Z,99753.00
2018-10-18T01:05:03.077Z,99747.00
2018-10-18T01:07:31.375Z,99753.00
2018-10-18T01:09:59.651Z,99755.00
2018-10-18T01:12:27.895Z,99755.00
2018-10-18T01:14:55.997Z,99754.00
2018-10-18T01:17:24.171Z,99756.00
2018-10-18T01:19:52.408Z,99758.00
2018-10-18T01:22:20.509Z,99761.00
2018-10-18T01:24:48.692Z,99763.00
2018-10-18T01:27:16.932Z,99763.00
2018-10-18T01:29:45.080Z,99761.00
2018-10-18T01:32:13.266Z,99764.00
2018-10-18T01:34:41.432Z,99767.00
2018-10-18T01:37:09.679Z,99760.00
2018-10-18T01:39:38.025Z,99761.00
2018-10-18T01:42:06.658Z,99763.00
2018-10-18T01:44:34.867Z,99763.00
2018-10-18T01:47:03.045Z,99762.00
2018-10-18T01:49:31.047Z,99763.00
2018-10-18T01:51:59.189Z,99762.00
2018-10-18T01:54:27.369Z,99759.00
2018-10-18T01:56:55.491Z,99752.00
2018-10-18T01:59:23.757Z,99759.00
2018-10-18T02:01:51.900Z,99754.00
2018-10-18T02:04:20.021Z,99759.00
2018-10-18T02:06:48.168Z,99754.00
2018-10-18T02:09:16.378Z,99757.00
2018-10-18T02:11:44.597Z,99760.00
2018-10-18T02:14:12.738Z,99758.00
2018-10-18T02:16:40.877Z,99761.00
2018-10-18T02:19:09.051Z,99754.00
2018-10-18T02:21:37.127Z,99748.00
2018-10-18T02:24:05.621Z,99750.00
2018-10-18T02:26:33.723Z,99757.00
2018-10-18T02:29:01.986Z,99756.00
2018-10-18T02:31:30.176Z,99760.00
2018-10-18T02:33:58.379Z,99762.00
2018-10-18T02:36:26.579Z,99763.00
2018-10-18T02:38:54.756Z,99759.00
2018-10-18T02:41:22.964Z,99757.00
2018-10-18T02:43:51.085Z,99761.00
2018-10-18T02:46:19.226Z,99752.00
2018-10-18T02:48:47.455Z,99753.00
2018-10-18T02:51:15.762Z,99754.00
2018-10-18T02:53:43.938Z,99750.00
2018-10-18T02:56:12.080Z,99754.00
2018-10-18T02:58:40.327Z,99753.00
2018-10-18T03:01:08.538Z,99756.00
2018-10-18T03:03:36.711Z,99758.00
2018-10-18T03:06:04.963Z,99766.00
2018-10-18T03:08:33.093Z,99766.00
2018-10-18T03:11:01.216Z,99771.00
2018-10-18T03:13:29.289Z,99765.00
2018-10-18T03:15:57.516Z,99772.00
2018-10-18T03:18:25.674Z,99774.00
2018-10-18T03:20:53.855Z,99776.00
2018-10-18T03:23:22.090Z,99775.00
2018-10-18T03:25:50.315Z,99777.00
2018-10-18T03:28:18.533Z,99772.00
2018-10-18T03:30:46.710Z,99773.00
2018-10-18T03:33:14.866Z,99777.00
2018-10-18T03:35:43.004Z,99779.00
2018-10-18T03:38:11.419Z,99774.00
2018-10-18T03:40:40.645Z,99778.00
2018-10-18T03:43:08.801Z,99780.00
2018-10-18T03:45:37.031Z,99781.00
2018-10-18T03:48:05.254Z,99781.00
2018-10-18T03:50:33.498Z,99779.00
2018-10-18T03:53:01.768Z,99786.00
2018-10-18T03:55:29.940Z,99785.00
2018-10-18T03:57:58.169Z,99786.00
2018-10-18T04:00:26.454Z,99792.00
2018-10-18T04:02:54.623Z,99789.00
2018-10-18T04:05:22.786Z,99787.00
2018-10-18T04:07:50.942Z,99742.00
2018-10-18T04:10:19.131Z,99786.00
2018-10-18T04:12:47.379Z,99788.00
2018-10-18T04:15:15.513Z,99783.00
2018-10-18T04:17:44.030Z,99787.00
2018-10-18T04:20:12.174Z,99784.00
2018-10-18T04:22:40.375Z,99784.00
2018-10-18T04:25:08.588Z,99782.00
2018-10-18T04:27:36.768Z,99780.00
2018-10-18T04:30:05.868Z,99787.00
2018-10-18T04:32:35.443Z,99786.00
2018-10-18T04:35:04.293Z,99787.00
2018-10-18T04:37:34.189Z,99788.00
2018-10-18T04:40:05.874Z,99789.00
2018-10-18T04:42:34.101Z,99789.00
2018-10-18T04:45:03.115Z,99786.00
2018-10-18T04:47:33.580Z,99790.00
2018-10-18T04:50:05.096Z,99794.00
2018-10-18T04:52:34.933Z,99795.00
2018-10-18T04:55:03.173Z,99800.00
2018-10-18T04:57:35.864Z,99798.00
2018-10-18T05:00:04.670Z,99799.00
2018-10-18T05:02:32.880Z,99798.00
2018-10-18T05:06:09.100Z,99800.00
2018-10-18T05:08:37.961Z,99802.00
2018-10-18T05:11:06.585Z,99803.00
2018-10-18T05:13:34.748Z,99804.00
2018-10-18T05:16:08.012Z,99807.00
2018-10-18T05:18:39.404Z,99811.00
2018-10-18T05:21:11.049Z,99813.00
2018-10-18T05:23:40.272Z,99816.00
2018-10-18T05:26:09.323Z,99818.00
2018-10-18T05:28:41.350Z,99820.00
2018-10-18T05:31:13.854Z,99825.00
2018-10-18T05:33:41.958Z,99829.00
2018-10-18T05:36:10.839Z,99835.00
2018-10-18T05:38:39.048Z,99837.00
2018-10-18T05:41:08.144Z,99837.00
2018-10-18T05:43:36.260Z,99840.00
2018-10-18T05:46:04.523Z,99844.00
2018-10-18T05:48:32.801Z,99846.00
2018-10-18T05:51:00.915Z,99854.00
2018-10-18T05:53:30.404Z,99852.00
2018-10-18T05:55:58.655Z,99856.00
2018-10-18T05:58:26.807Z,99859.00
2018-10-18T06:00:55.046Z,99862.00
2018-10-18T06:03:23.235Z,99862.00
2018-10-18T06:05:51.488Z,99869.00
2018-10-18T06:08:19.682Z,99873.00
2018-10-18T06:11:04.919Z,99877.00
2018-10-18T06:13:33.164Z,99879.00
2018-10-18T06:16:01.430Z,99878.00
2018-10-18T06:18:29.725Z,99881.00
2018-10-18T06:20:57.909Z,99882.00
2018-10-18T06:23:26.256Z,99886.00
2018-10-18T06:25:54.362Z,99890.00
2018-10-18T06:28:22.614Z,99891.00
2018-10-18T06:30:50.785Z,99893.00
2018-10-18T06:33:19.003Z,99894.00
2018-10-18T06:35:47.274Z,99899.00
2018-10-18T06:38:15.475Z,99903.00
2018-10-18T06:40:43.796Z,99900.00
2018-10-18T06:43:12.116Z,99906.00
2018-10-18T06:45:40.316Z,99909.00
2018-10-18T06:48:08.611Z,99910.00
2018-10-18T06:50:36.753Z,99915.00
2018-10-18T06:53:05.187Z,99917.00
2018-10-18T06:55:34.027Z,99923.00
2018-10-18T06:58:02.494Z,99929.00
2018-10-18T07:00:30.873Z,99927.00
2018-10-18T07:02:59.014Z,99929.00
2018-10-18T07:05:27.295Z,99931.00
2018-10-18T07:07:55.501Z,99930.00
2018-10-18T07:10:23.711Z,99932.00
2018-10-18T07:12:51.879Z,99937.00
2018-10-18T07:15:20.148Z,99936.00
2018-10-18T07:17:48.464Z,99937.00
2018-10-18T07:20:16.649Z,99936.00
2018-10-18T07:22:44.866Z,99940.00
2018-10-18T07:25:14.319Z,99940.00
2018-10-18T07:27:42.967Z,99940.00
2018-10-18T07:30:13.800Z,99945.00
2018-10-18T07:32:42.080Z,99948.00
2018-10-18T07:35:11.986Z,99946.00
2018-10-18T07:37:40.145Z,99947.00
2018-10-18T07:40:12.565Z,99955.00
2018-10-18T07:42:40.829Z,99952.00
2018-10-18T07:45:10.079Z,99951.00
2018-10-18T07:47:38.401Z,99947.00
2018-10-18T07:50:07.965Z,99946.00
2018-10-18T07:52:36.510Z,99907.00
2018-10-18T07:55:06.266Z,99951.00
2018-10-18T07:57:34.582Z,99947.00
2018-10-18T08:00:03.066Z,99947.00
2018-10-18T08:02:31.166Z,99952.00
2018-10-18T08:04:59.420Z,99953.00
2018-10-18T08:07:27.653Z,99951.00
2018-10-18T08:09:55.841Z,99943.00
2018-10-18T08:12:24.013Z,99948.00
2018-10-18T08:14:53.023Z,99943.00
2018-10-18T08:17:21.295Z,99942.00
2018-10-18T08:19:49.438Z,99947.00
2018-10-18T08:22:17.694Z,99948.00
2018-10-18T08:24:45.875Z,99955.00
2018-10-18T08:27:14.068Z,99951.00
2018-10-18T08:29:42.897Z,99953.00
2018-10-18T08:32:11.100Z,99950.00
2018-10-18T08:34:39.265Z,99956.00
2018-10-18T08:37:07.568Z,99947.00
2018-10-18T08:39:35.824Z,99947.00
2018-10-18T08:42:04.248Z,99951.00
2018-10-18T08:44:32.628Z,99952.00
2018-10-18T08:47:00.726Z,99943.00
2018-10-18T08:49:28.890Z,99948.00
2018-10-18T08:51:57.171Z,99949.00
2018-10-18T08:54:25.460Z,99944.00
2018-10-18T08:56:53.635Z,99941.00
2018-10-18T08:59:21.867Z,99939.00
2018-10-18T09:01:50.037Z,99932.00
2018-10-18T09:04:18.188Z,99927.00
2018-10-18T09:06:46.449Z,99930.00
2018-10-18T09:09:14.744Z,99927.00
2018-10-18T09:11:42.875Z,99930.00
2018-10-18T09:14:11.117Z,99926.00
2018-10-18T09:16:39.309Z,99926.00
2018-10-18T09:19:07.541Z,99926.00
2018-10-18T09:21:35.758Z,99921.00
2018-10-18T09:24:04.550Z,99923.00
2018-10-18T09:26:32.854Z,99920.00
2018-10-18T09:29:01.142Z,99922.00
2018-10-18T09:31:29.344Z,99922.00
2018-10-18T09:33:57.534Z,99916.00
2018-10-18T09:36:25.808Z,99911.00
2018-10-18T09:38:53.978Z,99908.00
2018-10-18T09:41:22.327Z,99907.00
2018-10-18T09:43:55.082Z,99901.00
2018-10-18T09:46:23.207Z,99903.00
2018-10-18T09:48:51.292Z,99898.00
2018-10-18T09:51:19.529Z,99895.00
2018-10-18T09:53:47.701Z,99895.00
2018-10-18T09:56:16.035Z,99898.00
2018-10-18T09:58:45.263Z,99899.00
2018-10-18T10:01:19.052Z,99901.00
2018-10-18T10:03:47.216Z,99899.00
2018-10-18T10:06:15.494Z,99891.00
2018-10-18T10:08:43.670Z,99893.00
2018-10-18T10:11:11.919Z,99885.00
2018-10-18T10:13:40.076Z,99885.00
2018-10-18T10:16:08.222Z,99884.00
2018-10-18T10:18:37.716Z,99882.00
2018-10-18T10:21:06.050Z,99876.00
2018-10-18T10:23:34.231Z,99866.00
2018-10-18T10:26:02.727Z,99862.00
2018-10-18T10:28:31.457Z,99861.00
2018-10-18T10:30:59.758Z,99852.00
2018-10-18T10:33:28.022Z,99846.00
2018-10-18T10:35:56.267Z,99840.00
2018-10-18T10:38:24.457Z,99838.00
2018-10-18T10:40:52.608Z,99845.00
2018-10-18T10:43:20.865Z,99831.00
2018-10-18T10:45:49.210Z,99826.00
2018-10-18T10:48:17.476Z,99819.00
2018-10-18T10:50:45.665Z,99823.00
2018-10-18T10:53:13.866Z,99815.00
2018-10-18T10:55:42.103Z,99808.00
2018-10-18T10:58:10.361Z,99798.00
2018-10-18T11:01:19.174Z,99797.00
2018-10-18T11:03:48.023Z,99798.00
2018-10-18T11:06:16.307Z,99787.00
2018-10-18T11:08:44.545Z,99776.00
2018-10-18T11:11:13.780Z,99771.00
2018-10-18T11:13:42.058Z,99767.00
2018-10-18T11:16:10.218Z,99765.00
2018-10-18T11:18:38.952Z,99758.00
2018-10-18T11:21:08.423Z,99758.00
2018-10-18T11:23:37.335Z,99755.00
2018-10-18T11:26:05.834Z,99753.00
2018-10-18T11:28:34.124Z,99753.00
2018-10-18T11:31:02.341Z,99752.00
2018-10-18T11:33:30.639Z,99752.00
2018-10-18T11:35:58.896Z,99751.00
2018-10-18T11:38:27.123Z,99751.00
2018-10-18T11:40:55.352Z,99751.00
2018-10-18T11:43:23.623Z,99747.00
2018-10-18T11:45:51.758Z,99745.00
2018-10-18T11:48:20.044Z,99738.00
2018-10-18T11:50:48.314Z,99743.00
2018-10-18T11:53:16.482Z,99740.00
2018-10-18T11:55:44.690Z,99737.00
2018-10-18T11:58:14.016Z,99732.00
2018-10-18T12:00:42.300Z,99734.00
2018-10-18T12:03:10.512Z,99736.00
2018-10-18T12:05:38.698Z,99738.00
2018-10-18T12:08:07.011Z,99737.00
2018-10-18T12:10:35.130Z,99732.00
2018-10-18T12:13:03.343Z,99730.00
2018-10-18T12:15:31.571Z,99730.00
2018-10-18T12:17:59.706Z,99729.00
2018-10-18T12:20:27.926Z,99727.00
2018-10-18T12:22:56.211Z,99724.00
2018-10-18T12:25:24.362Z,99725.00
2018-10-18T12:27:52.909Z,99721.00
2018-10-18T12:30:21.201Z,99724.00
2018-10-18T12:32:49.422Z,99714.00
2018-10-18T12:35:17.731Z,99717.00
2018-10-18T12:37:45.859Z,99725.00
2018-10-18T12:40:14.157Z,99725.00
2018-10-18T12:42:43.667Z,99716.00
2018-10-18T12:45:12.448Z,99718.00
2018-10-18T12:47:40.669Z,99715.00
2018-10-18T12:50:09.016Z,99713.00
2018-10-18T12:52:37.208Z,99706.00
2018-10-18T12:55:05.681Z,99709.00
2018-10-18T12:57:33.963Z,99711.00
2018-10-18T13:00:02.209Z,99712.00
2018-10-18T13:02:30.445Z,99710.00
2018-10-18T13:04:58.557Z,99705.00
2018-10-18T13:07:26.792Z,99705.00
2018-10-18T13:09:54.943Z,99702.00
2018-10-18T13:12:23.221Z,99699.00
2018-10-18T13:14:51.273Z,99700.00
2018-10-18T13:17:19.457Z,99694.00
2018-10-18T13:19:47.659Z,99703.00
2018-10-18T13:22:15.821Z,99719.00
2018-10-18T13:24:44.041Z,99717.00
2018-10-18T13:27:12.215Z,99724.00
2018-10-18T13:29:40.377Z,99724.00
2018-10-18T13:32:08.643Z,99725.00
2018-10-18T13:34:36.788Z,99728.00
2018-10-18T13:37:05.291Z,99736.00
2018-10-18T13:39:33.455Z,99737.00
2018-10-18T13:42:01.796Z,99734.00
2018-10-18T13:44:29.881Z,99739.00
2018-10-18T13:46:58.146Z,99741.00
2018-10-18T13:49:26.473Z,99742.00
2018-10-18T13:51:54.666Z,99736.00
2018-10-18T13:54:22.924Z,99739.00
2018-10-18T13:56:51.031Z,99739.00
2018-10-18T13:59:36.353Z,99743.00
2018-10-18T14:02:04.982Z,99741.00
2018-10-18T14:04:33.128Z,99749.00
2018-10-18T14:07:01.292Z,99748.00
2018-10-18T14:09:29.462Z,99751.00
2018-10-18T14:11:57.637Z,99750.00
2018-10-18T14:14:25.843Z,99753.00
2018-10-18T14:16:54.069Z,99752.00
2018-10-18T14:19:22.371Z,99757.00
2018-10-18T14:21:50.692Z,99760.00
2018-10-18T14:24:19.039Z,99770.00
2018-10-18T14:26:47.283Z,99772.00
2018-10-18T14:29:15.571Z,99775.00
2018-10-18T14:31:43.755Z,99777.00
2018-10-18T14:34:12.009Z,99781.00
2018-10-18T14:36:43.684Z,99782.00
2018-10-18T14:39:11.892Z,99783.00
2018-10-18T14:41:40.055Z,99782.00
2018-10-18T14:44:08.221Z,99777.00
2018-10-18T14:46:36.447Z,99783.00
2018-10-18T14:49:04.782Z,99779.00
2018-10-18T14:51:32.999Z,99780.00
2018-10-18T14:54:01.234Z,99779.00
2018-10-18T14:56:29.463Z,99784.00
2018-10-18T14:58:57.827Z,99783.00
2018-10-18T15:01:26.089Z,99785.00
2018-10-18T15:03:54.279Z,99776.00
2018-10-18T15:06:22.485Z,99769.00
2018-10-18T15:08:50.726Z,99773.00
2018-10-18T15:11:18.876Z,99770.00
2018-10-18T15:13:47.093Z,99768.00
2018-10-18T15:16:15.312Z,99772.00
2018-10-18T15:18:43.542Z,99775.00
2018-10-18T15:21:12.621Z,99780.00
2018-10-18T15:23:40.843Z,99781.00
2018-10-18T15:26:09.115Z,99785.00
2018-10-18T15:28:37.244Z,99786.00
2018-10-18T15:31:05.714Z,99780.00
2018-10-18T15:33:33.958Z,99783.00
2018-10-18T15:36:02.137Z,99792.00
2018-10-18T15:38:30.479Z,99795.00
2018-10-18T15:40:58.613Z,99796.00
2018-10-18T15:43:26.765Z,99803.00
2018-10-18T15:45:55.626Z,99798.00
2018-10-18T15:48:23.885Z,99800.00
2018-10-18T15:50:52.042Z,99800.00
2018-10-18T15:53:20.348Z,99809.00
2018-10-18T15:55:48.434Z,99815.00
2018-10-18T15:58:16.747Z,99814.00
2018-10-18T16:00:45.850Z,99818.00
2018-10-18T16:03:14.056Z,99822.00
2018-10-18T16:05:42.226Z,99820.00
2018-10-18T16:08:10.457Z,99834.00
2018-10-18T16:10:38.682Z,99832.00
2018-10-18T16:13:06.926Z,99837.00
2018-10-18T16:15:35.134Z,99843.00
2018-10-18T16:18:03.315Z,99847.00
2018-10-18T16:20:31.512Z,99853.00
2018-10-18T16:22:59.798Z,99852.00
2018-10-18T16:25:28.003Z,99854.00
2018-10-18T16:27:56.260Z,99858.00
2018-10-18T16:30:24.565Z,99861.00
2018-10-18T16:32:52.721Z,99869.00
2018-10-18T16:35:20.997Z,99873.00
2018-10-18T16:37:49.225Z,99870.00
2018-10-18T16:40:17.435Z,99876.00
2018-10-18T16:42:45.661Z,99883.00
2018-10-18T16:45:13.971Z,99883.00
2018-10-18T16:47:42.359Z,99893.00
2018-10-18T16:50:11.167Z,99893.00
2018-10-18T16:52:39.400Z,99902.00
2018-10-18T16:55:07.661Z,99903.00
2018-10-18T16:57:35.891Z,99902.00
2018-10-18T17:00:05.441Z,99909.00
2018-10-18T17:02:33.692Z,99912.00
2018-10-18T17:05:01.858Z,99911.00
2018-10-18T17:07:30.087Z,99922.00
2018-10-18T17:09:58.377Z,99924.00
2018-10-18T17:12:26.619Z,99928.00
2018-10-18T17:14:54.824Z,99933.00
2018-10-18T17:17:22.973Z,99939.00
2018-10-18T17:19:51.175Z,99940.00
2018-10-18T17:22:19.431Z,99944.00
2018-10-18T17:24:47.704Z,99946.00
2018-10-18T17:27:16.100Z,99946.00
2018-10-18T17:29:44.272Z,99949.00
2018-10-18T17:32:12.655Z,99949.00
2018-10-18T17:34:40.667Z,99952.00
2018-10-18T17:37:08.940Z,99953.00
2018-10-18T17:39:37.983Z,99955.00
2018-10-18T17:42:08.389Z,99963.00
2018-10-18T17:44:41.193Z,99966.00
2018-10-18T17:47:09.483Z,99957.00
2018-10-18T17:49:37.730Z,99966.00
2018-10-18T17:52:06.228Z,99969.00
2018-10-18T17:54:34.389Z,99963.00
2018-10-18T17:57:02.599Z,99965.00
2018-10-18T17:59:30.853Z,99966.00
2018-10-18T18:01:59.058Z,99968.00
2018-10-18T18:04:27.308Z,99974.00
2018-10-18T18:06:55.633Z,99976.00
2018-10-18T18:09:23.797Z,99981.00
2018-10-18T18:11:51.951Z,99981.00
2018-10-18T18:14:20.186Z,99981.00
2018-10-18T18:16:48.412Z,99984.00
2018-10-18T18:19:16.653Z,99982.00
2018-10-18T18:21:44.893Z,99984.00
2018-10-18T18:24:13.080Z,99987.00
2018-10-18T18:26:45.347Z,99993.00
2018-10-18T18:29:09.690Z,99995.00
2018-10-18T18:31:37.829Z,99999.00
2018-10-18T18:34:06.684Z,100006.00
2018-10-18T18:36:34.876Z,100005.00
2018-10-18T18:39:04.257Z,100008.00
2018-10-18T18:41:32.488Z,100004.00
2018-10-18T18:44:00.784Z,100003.00
2018-10-18T18:46:31.533Z,100004.00
2018-10-18T18:48:59.721Z,100001.00
2018-10-18T18:51:27.883Z,100004.00
2018-10-18T18:53:56.072Z,100009.00
2018-10-18T18:56:24.234Z,100010.00
2018-10-18T18:58:52.462Z,100013.00
2018-10-18T19:01:20.718Z,100011.00
2018-10-18T19:03:48.909Z,100017.00
2018-10-18T19:06:17.148Z,100014.00
2018-10-18T19:08:45.379Z,100027.00
2018-10-18T19:11:13.611Z,100024.00
2018-10-18T19:13:41.804Z,100027.00
2018-10-18T19:16:10.045Z,100028.00
2018-10-18T19:18:38.397Z,100030.00
2018-10-18T19:21:06.697Z,100029.00
2018-10-18T19:23:34.826Z,100029.00
2018-10-18T19:26:03.055Z,100032.00
2018-10-18T19:28:31.691Z,100037.00
2018-10-18T19:30:59.900Z,100039.00
2018-10-18T19:33:28.175Z,100041.00
2018-10-18T19:35:56.356Z,100034.00
2018-10-18T19:38:24.577Z,100039.00
2018-10-18T19:40:53.391Z,100046.00
2018-10-18T19:43:21.583Z,100047.00
2018-10-18T19:45:49.862Z,100044.00
2018-10-18T19:48:17.939Z,100047.00
2018-10-18T19:50:46.125Z,100052.00
2018-10-18T19:53:14.310Z,100051.00
2018-10-18T19:55:42.430Z,100050.00
2018-10-18T19:58:10.663Z,100051.00
2018-10-18T20:00:38.848Z,100050.00
2018-10-18T20:03:06.951Z,100059.00
2018-10-18T20:05:35.103Z,100017.00
2018-10-18T20:08:03.610Z,100062.00
2018-10-18T20:10:31.792Z,100067.00
2018-10-18T20:13:00.078Z,100071.00
2018-10-18T20:15:28.200Z,100072.00
2018-10-18T20:17:57.430Z,100072.00
2018-10-18T20:20:25.490Z,100073.00
2018-10-18T20:22:53.618Z,100069.00
2018-10-18T20:25:21.944Z,100075.00
2018-10-18T20:27:49.956Z,100074.00
2018-10-18T20:30:18.731Z,100071.00
2018-10-18T20:32:46.900Z,100072.00
2018-10-18T20:35:15.075Z,100076.00
2018-10-18T20:37:43.261Z,100078.00
2018-10-18T20:40:13.261Z,100079.00
2018-10-18T20:42:41.606Z,100078.00
2018-10-18T20:45:14.290Z,100081.00
2018-10-18T20:47:43.537Z,100081.00
2018-10-18T20:50:12.436Z,100080.00
2018-10-18T20:52:40.611Z,100081.00
2018-10-18T20:55:09.170Z,100083.00
2018-10-18T20:57:38.063Z,100088.00
2018-10-18T21:00:08.277Z,100089.00
2018-10-18T21:02:36.457Z,100090.00
2018-10-18T21:05:05.302Z,100090.00
2018-10-18T21:07:33.444Z,100093.00
2018-10-18T21:10:01.584Z,100094.00
2018-10-18T21:12:29.832Z,100094.00
2018-10-18T21:14:57.942Z,100094.00
2018-10-18T21:17:26.033Z,100094.00
2018-10-18T21:19:54.181Z,100092.00
2018-10-18T21:22:22.385Z,100088.00
2018-10-18T21:24:50.485Z,100090.00
2018-10-18T21:27:18.636Z,100092.00
2018-10-18T21:29:46.819Z,100096.00
2018-10-18T21:32:15.564Z,100097.00
2018-10-18T21:34:45.418Z,100094.00
2018-10-18T21:37:13.596Z,100090.00
2018-10-18T21:39:42.368Z,100094.00
2018-10-18T21:42:10.577Z,100093.00
2018-10-18T21:44:39.005Z,100089.00
2018-10-18T21:47:07.230Z,100093.00
2018-10-18T21:49:35.409Z,100092.00
2018-10-18T21:52:03.610Z,100089.00
2018-10-18T21:54:31.761Z,100091.00
2018-10-18T21:56:59.961Z,100095.00
2018-10-18T21:59:28.240Z,100094.00
2018-10-18T22:01:56.486Z,100094.00
2018-10-18T22:04:24.615Z,100044.00
2018-10-18T22:06:52.773Z,100090.00
2018-10-18T22:09:22.075Z,100098.00
2018-10-18T22:11:50.232Z,100095.00
2018-10-18T22:14:19.476Z,100095.00
2018-10-18T22:16:47.608Z,100092.00
2018-10-18T22:19:15.751Z,100100.00
2018-10-18T22:21:43.903Z,100097.00
2018-10-18T22:24:12.109Z,100097.00
2018-10-18T22:26:40.284Z,100107.00
2018-10-18T22:29:08.472Z,100107.00
2018-10-18T22:31:36.859Z,100100.00
2018-10-18T22:34:05.394Z,100098.00
2018-10-18T22:36:33.612Z,100102.00
2018-10-18T22:39:01.810Z,100107.00
2018-10-18T22:41:29.919Z,100101.00
2018-10-18T22:43:58.088Z,100099.00
2018-10-18T22:46:26.240Z,100099.00
2018-10-18T22:48:54.440Z,100101.00
2018-10-18T22:51:22.640Z,100092.00
2018-10-18T22:53:50.739Z,100094.00
2018-10-18T22:56:18.940Z,100096.00
2018-10-18T22:58:47.086Z,100092.00
2018-10-18T23:01:15.235Z,100094.00
2018-10-18T23:03:43.338Z,100086.00
2018-10-18T23:06:11.574Z,100089.00
2018-10-18T23:08:39.748Z,100093.00
2018-10-18T23:11:08.103Z,100093.00
2018-10-18T23:13:36.213Z,100090.00
2018-10-18T23:16:04.479Z,100087.00
2018-10-18T23:18:32.634Z,100082.00
2018-10-18T23:21:00.851Z,100090.00
2018-10-18T23:23:28.979Z,100083.00
2018-10-18T23:25:57.075Z,100082.00
2018-10-18T23:28:25.180Z,100079.00
2018-10-18T23:30:58.455Z,100084.00
2018-10-18T23:33:26.719Z,100039.00
2018-10-18T23:35:54.906Z,100086.00
2018-10-18T23:38:23.063Z,100089.00
2018-10-18T23:40:51.193Z,100087.00
2018-10-18T23:43:19.340Z,100085.00
2018-10-18T23:45:47.548Z,100087.00
2018-10-18T23:48:16.008Z,100085.00
2018-10-18T23:50:44.238Z,100079.00
2018-10-18T23:53:12.399Z,100082.00
2018-10-18T23:55:40.545Z,100084.00
2018-10-18T23:58:08.765Z,100082.00
